Time;durP1;ratioP1;P1;durP2;ratioP2;P2;SDS_P1;SDS_P2;PMS_P1;PMS_P2;Temp;Humidity;BMP_temperature;BMP_pressure;BME280_temperature;BME280_humidity;BME280_pressure;Samples;Min_cycle;Max_cycle;Signal;HPM_P1;HPM_P2
2021/03/11 00:00:40;;;;;;;75.10;34.28;;;5.20;99.90;;;;;;5051506;28;20108;-76
2021/03/11 00:03:07;;;;;;;88.75;36.75;;;5.10;99.90;;;;;;5050982;28;20029;-76
2021/03/11 00:05:36;;;;;;;75.20;36.35;;;5.10;99.90;;;;;;5032941;28;20489;-76
2021/03/11 00:08:03;;;;;;;69.85;34.33;;;5.20;99.90;;;;;;5051595;28;20111;-75
2021/03/11 00:10:29;;;;;;;76.55;36.17;;;5.20;99.90;;;;;;5051160;28;20024;-76
2021/03/11 00:12:55;;;;;;;76.03;36.70;;;5.20;99.90;;;;;;5033170;28;20025;-76
2021/03/11 00:15:22;;;;;;;79.82;35.15;;;5.20;99.90;;;;;;5050737;28;20032;-77
2021/03/11 00:17:48;;;;;;;81.18;35.75;;;5.20;99.90;;;;;;5051253;28;20052;-76
2021/03/11 00:20:16;;;;;;;73.43;35.35;;;5.20;99.90;;;;;;5051301;28;20494;-75
2021/03/11 00:22:42;;;;;;;76.40;34.65;;;5.20;99.90;;;;;;5050949;28;20032;-76
2021/03/11 00:25:09;;;;;;;66.63;33.78;;;5.20;99.90;;;;;;5050330;28;20029;-76
2021/03/11 00:27:34;;;;;;;67.47;34.53;;;5.20;99.90;;;;;;5050870;28;20419;-77
2021/03/11 00:30:00;;;;;;;78.30;37.65;;;5.20;99.90;;;;;;5051191;28;20021;-77
2021/03/11 00:32:26;;;;;;;72.97;35.55;;;5.20;99.90;;;;;;5051179;28;20090;-76
2021/03/11 00:34:51;;;;;;;67.82;32.03;;;5.20;99.90;;;;;;5049895;28;20033;-76
2021/03/11 00:37:17;;;;;;;70.53;33.92;;;5.10;99.90;;;;;;5050938;28;20029;-76
2021/03/11 00:39:42;;;;;;;74.50;32.72;;;5.10;99.90;;;;;;5033231;28;20487;-75
2021/03/11 00:42:08;;;;;;;67.70;32.83;;;5.10;99.90;;;;;;5033141;28;20032;-75
2021/03/11 00:44:33;;;;;;;69.80;34.30;;;5.10;99.90;;;;;;5050155;28;20393;-76
2021/03/11 00:46:59;;;;;;;62.40;31.50;;;5.00;99.90;;;;;;5050937;28;20033;-76
2021/03/11 00:49:25;;;;;;;69.68;32.03;;;5.00;99.90;;;;;;5050948;28;20123;-76
2021/03/11 00:51:50;;;;;;;56.88;30.67;;;5.00;99.90;;;;;;5033065;28;20033;-77
2021/03/11 00:54:16;;;;;;;53.38;29.75;;;5.00;99.90;;;;;;5050402;28;20393;-77
2021/03/11 00:56:41;;;;;;;71.50;31.70;;;5.00;99.90;;;;;;5050898;28;20033;-77
2021/03/11 00:59:07;;;;;;;61.42;30.17;;;4.90;99.90;;;;;;5050559;28;20033;-77
2021/03/11 01:01:33;;;;;;;49.33;28.63;;;4.90;99.90;;;;;;5050764;28;20363;-78
2021/03/11 01:03:59;;;;;;;65.60;30.05;;;4.90;99.90;;;;;;5050309;28;20025;-78
2021/03/11 01:06:25;;;;;;;51.65;27.35;;;4.90;99.90;;;;;;5050943;28;20112;-77
2021/03/11 01:08:50;;;;;;;61.25;30.63;;;4.90;99.90;;;;;;5050911;28;20029;-77
2021/03/11 01:11:16;;;;;;;54.47;30.08;;;4.90;99.90;;;;;;5050849;28;20402;-77
2021/03/11 01:13:41;;;;;;;55.47;30.25;;;4.90;99.90;;;;;;5050056;28;20083;-77
2021/03/11 01:16:07;;;;;;;54.42;29.98;;;4.80;99.90;;;;;;5050492;28;20033;-77
2021/03/11 01:18:32;;;;;;;57.72;30.83;;;4.80;99.90;;;;;;5050563;28;20044;-76
2021/03/11 01:20:58;;;;;;;58.15;29.77;;;4.80;99.90;;;;;;5050655;28;20068;-77
2021/03/11 01:23:23;;;;;;;48.72;25.90;;;4.80;99.90;;;;;;5034855;28;20032;-77
2021/03/11 01:25:49;;;;;;;54.70;29.73;;;4.80;99.90;;;;;;5053669;28;20112;-77
2021/03/11 01:28:15;;;;;;;56.67;27.33;;;4.80;99.90;;;;;;5053958;28;20083;-77
2021/03/11 01:30:40;;;;;;;61.60;29.67;;;4.70;99.90;;;;;;5053841;28;20355;-77
2021/03/11 01:33:06;;;;;;;46.33;25.33;;;4.70;99.90;;;;;;5036375;28;20485;-77
2021/03/11 01:35:31;;;;;;;48.00;26.38;;;4.70;99.90;;;;;;5053376;28;20033;-76
2021/03/11 01:37:57;;;;;;;51.67;25.67;;;4.70;99.90;;;;;;5053447;28;20132;-76
2021/03/11 01:40:22;;;;;;;50.47;24.77;;;4.70;99.90;;;;;;5036183;28;20431;-77
2021/03/11 01:42:48;;;;;;;48.13;25.52;;;4.70;99.90;;;;;;5053575;28;20032;-76
2021/03/11 01:45:16;;;;;;;50.35;26.65;;;4.70;99.90;;;;;;5053186;28;20485;-76
2021/03/11 01:47:42;;;;;;;53.88;27.50;;;4.60;99.90;;;;;;5036034;28;20028;-76
2021/03/11 01:50:08;;;;;;;49.88;26.25;;;4.60;99.90;;;;;;5035419;28;20485;-76
2021/03/11 01:52:34;;;;;;;47.00;25.38;;;4.60;99.90;;;;;;5035735;28;20758;-77
2021/03/11 01:55:00;;;;;;;59.00;29.60;;;4.60;99.90;;;;;;5053289;28;20025;-76
2021/03/11 01:57:27;;;;;;;55.65;29.13;;;4.70;99.90;;;;;;5053301;28;20064;-76
2021/03/11 01:59:53;;;;;;;50.55;27.98;;;4.70;99.90;;;;;;5052632;28;20043;-78
2021/03/11 02:02:19;;;;;;;63.58;30.02;;;4.70;99.90;;;;;;5035783;28;20021;-76
2021/03/11 02:04:44;;;;;;;58.67;30.30;;;4.70;99.90;;;;;;5035119;28;20040;-77
2021/03/11 02:07:10;;;;;;;58.30;29.67;;;4.70;99.90;;;;;;5053303;28;20036;-77
2021/03/11 02:09:36;;;;;;;60.97;31.15;;;4.70;99.90;;;;;;5053138;28;20431;-77
2021/03/11 02:12:11;;;;;;;63.15;31.20;;;4.70;99.90;;;;;;5035610;28;20028;-77
2021/03/11 02:15:01;;;;;;;58.45;29.42;;;4.70;99.90;;;;;;5052288;28;20033;-75
2021/03/11 02:17:31;;;;;;;63.17;29.00;;;4.70;99.90;;;;;;5035581;28;20385;-77
2021/03/11 02:20:21;;;;;;;60.83;30.13;;;4.70;99.90;;;;;;5052908;28;20025;-77
2021/03/11 02:23:13;;;;;;;74.75;32.30;;;4.70;99.90;;;;;;5035292;28;20075;-76
2021/03/11 02:26:16;;;;;;;68.63;31.45;;;4.80;99.90;;;;;;5034747;28;20025;-76
2021/03/11 02:29:05;;;;;;;69.10;31.42;;;4.80;99.90;;;;;;5034761;28;20135;-75
2021/03/11 02:31:34;;;;;;;71.78;32.95;;;4.80;99.90;;;;;;5053111;28;20489;-75
2021/03/11 02:34:05;;;;;;;58.78;29.63;;;4.80;99.90;;;;;;5033095;28;20409;-76
2021/03/11 02:36:32;;;;;;;71.80;31.83;;;4.80;99.90;;;;;;5052820;28;20020;-76
2021/03/11 02:39:01;;;;;;;57.75;29.42;;;4.80;99.90;;;;;;5052409;28;20139;-76
2021/03/11 02:41:27;;;;;;;64.35;31.27;;;4.90;99.90;;;;;;5052864;28;20516;-75
2021/03/11 02:43:53;;;;;;;60.70;28.65;;;4.90;99.90;;;;;;5051725;28;20037;-76
2021/03/11 02:46:20;;;;;;;70.65;31.58;;;4.90;99.90;;;;;;5052785;28;20110;-75
2021/03/11 02:48:49;;;;;;;65.07;31.45;;;4.90;99.90;;;;;;5052288;28;20048;-76
2021/03/11 02:51:16;;;;;;;62.17;29.50;;;4.90;99.90;;;;;;5034382;28;20033;-76
2021/03/11 02:53:42;;;;;;;62.42;32.40;;;5.00;99.90;;;;;;5052276;28;20473;-76
2021/03/11 02:56:09;;;;;;;56.58;25.98;;;5.00;99.90;;;;;;5052483;28;20039;-76
2021/03/11 02:58:36;;;;;;;57.22;28.88;;;5.10;99.90;;;;;;5034048;28;20481;-76
2021/03/11 03:01:02;;;;;;;56.85;29.25;;;5.00;99.90;;;;;;5052485;28;20508;-77
2021/03/11 03:03:32;;;;;;;65.13;30.85;;;5.10;99.90;;;;;;5052372;28;20053;-76
2021/03/11 03:05:59;;;;;;;51.30;26.52;;;5.10;99.90;;;;;;5050504;28;20059;-76
2021/03/11 03:08:25;;;;;;;60.97;29.30;;;5.10;99.90;;;;;;5034502;28;20021;-77
2021/03/11 03:10:53;;;;;;;61.35;30.30;;;5.10;99.90;;;;;;5051528;28;20048;-76
2021/03/11 03:13:20;;;;;;;57.20;31.23;;;5.10;99.90;;;;;;5050697;28;20037;-76
2021/03/11 03:15:46;;;;;;;60.67;30.20;;;5.10;99.90;;;;;;5051586;28;20551;-76
2021/03/11 03:18:14;;;;;;;58.65;31.15;;;5.10;99.90;;;;;;5052190;28;20430;-76
2021/03/11 03:20:40;;;;;;;61.92;32.63;;;5.10;99.90;;;;;;5051881;28;20048;-76
2021/03/11 03:23:07;;;;;;;54.88;28.17;;;5.10;99.90;;;;;;5033937;28;20029;-78
2021/03/11 03:25:33;;;;;;;66.18;31.23;;;5.10;99.90;;;;;;5051405;28;20033;-76
2021/03/11 03:28:00;;;;;;;60.35;31.10;;;5.10;99.90;;;;;;5051570;28;20499;-76
2021/03/11 03:30:25;;;;;;;62.88;30.08;;;5.10;99.90;;;;;;5051893;28;20017;-76
2021/03/11 03:32:51;;;;;;;58.95;30.08;;;5.10;99.90;;;;;;5052147;28;20382;-77
2021/03/11 03:35:18;;;;;;;59.75;28.33;;;5.10;99.90;;;;;;5035476;28;20043;-77
2021/03/11 03:37:44;;;;;;;57.28;30.13;;;5.10;99.90;;;;;;5051548;28;20025;-77
2021/03/11 03:40:12;;;;;;;63.65;30.75;;;5.10;99.90;;;;;;5051892;28;20116;-76
2021/03/11 03:42:51;;;;;;;64.45;30.35;;;5.10;99.90;;;;;;5051584;28;20493;-77
2021/03/11 03:45:25;;;;;;;63.40;29.63;;;5.10;99.90;;;;;;5050861;28;20417;-77
2021/03/11 03:47:52;;;;;;;56.45;30.08;;;5.10;99.90;;;;;;5051771;28;20040;-76
2021/03/11 03:50:19;;;;;;;58.10;29.38;;;5.20;99.90;;;;;;5051030;28;20044;-77
2021/03/11 03:52:47;;;;;;;51.13;29.13;;;5.20;99.90;;;;;;5033569;28;20083;-77
2021/03/11 03:55:14;;;;;;;58.30;29.77;;;5.20;99.90;;;;;;5051000;28;20409;-76
2021/03/11 03:57:45;;;;;;;55.95;30.25;;;5.20;99.90;;;;;;5051367;28;20028;-76
2021/03/11 04:00:12;;;;;;;57.75;28.15;;;5.20;99.90;;;;;;5051523;28;20025;-76
2021/03/11 04:02:39;;;;;;;55.70;27.80;;;5.20;99.90;;;;;;5033520;28;20043;-76
2021/03/11 04:05:07;;;;;;;50.80;27.30;;;5.20;99.90;;;;;;5050540;28;20029;-76
2021/03/11 04:07:33;;;;;;;56.50;29.10;;;5.20;99.90;;;;;;5051451;28;20489;-76
2021/03/11 04:09:59;;;;;;;47.58;26.48;;;5.20;99.90;;;;;;5051509;28;20028;-76
2021/03/11 04:12:26;;;;;;;46.17;27.25;;;5.20;99.90;;;;;;5051122;28;20024;-76
2021/03/11 04:14:52;;;;;;;52.58;28.70;;;5.30;99.90;;;;;;5050749;28;20029;-77
2021/03/11 04:17:19;;;;;;;53.65;30.30;;;5.30;99.90;;;;;;5051364;28;20033;-76
2021/03/11 04:19:44;;;;;;;53.42;28.75;;;5.30;99.90;;;;;;5033465;28;20504;-75
2021/03/11 04:22:10;;;;;;;51.08;27.60;;;5.30;99.90;;;;;;5051045;28;20033;-76
2021/03/11 04:24:37;;;;;;;51.55;27.90;;;5.30;99.90;;;;;;5050262;28;20035;-76
2021/03/11 04:27:06;;;;;;;47.30;28.13;;;5.30;99.90;;;;;;5051298;28;20022;-76
2021/03/11 04:29:32;;;;;;;48.95;28.50;;;5.30;99.90;;;;;;5050982;28;20025;-76
2021/03/11 04:31:58;;;;;;;42.63;26.83;;;5.40;99.90;;;;;;5051256;28;20492;-76
2021/03/11 04:34:24;;;;;;;38.47;25.35;;;5.40;99.90;;;;;;5050277;28;20025;-76
2021/03/11 04:36:51;;;;;;;45.03;25.65;;;5.40;99.90;;;;;;5050410;28;20021;-76
2021/03/11 04:39:20;;;;;;;43.28;24.13;;;5.40;99.90;;;;;;5051274;28;20037;-76
2021/03/11 04:41:49;;;;;;;39.08;22.98;;;5.50;99.90;;;;;;5051254;28;20021;-76
2021/03/11 04:44:15;;;;;;;41.35;23.08;;;5.50;99.90;;;;;;5050105;28;20049;-76
2021/03/11 04:46:41;;;;;;;33.83;20.50;;;5.50;99.90;;;;;;5051035;28;20464;-76
2021/03/11 04:49:07;;;;;;;35.10;22.10;;;5.60;99.90;;;;;;5050941;28;20048;-76
2021/03/11 04:51:33;;;;;;;36.45;21.63;;;5.60;99.90;;;;;;5051224;28;20029;-76
2021/03/11 04:53:59;;;;;;;35.13;19.30;;;5.60;99.90;;;;;;5049830;28;20025;-76
2021/03/11 04:56:26;;;;;;;35.38;19.73;;;5.60;99.90;;;;;;5051100;28;20033;-77
2021/03/11 04:58:53;;;;;;;36.42;20.58;;;5.60;99.90;;;;;;5053546;28;20083;-76
2021/03/11 05:01:23;;;;;;;29.17;18.20;;;5.70;99.90;;;;;;5036826;28;20399;-76
2021/03/11 05:03:49;;;;;;;30.95;18.27;;;5.70;99.90;;;;;;5053816;28;20047;-76
2021/03/11 05:06:15;;;;;;;32.45;17.95;;;5.70;99.90;;;;;;5054842;28;20059;-76
2021/03/11 05:08:42;;;;;;;38.88;19.33;;;5.80;99.90;;;;;;5054602;28;20017;-76
2021/03/11 05:11:08;;;;;;;32.08;18.90;;;5.70;99.90;;;;;;5054694;28;20103;-76
2021/03/11 05:13:34;;;;;;;31.05;17.73;;;5.80;99.90;;;;;;5036119;28;20409;-76
2021/03/11 05:16:00;;;;;;;26.17;17.70;;;5.90;99.90;;;;;;5036182;28;20104;-77
2021/03/11 05:18:26;;;;;;;31.02;18.77;;;5.90;99.90;;;;;;5054575;28;20524;-76
2021/03/11 05:20:52;;;;;;;30.75;18.15;;;6.00;99.90;;;;;;5054420;28;20036;-75
2021/03/11 05:23:19;;;;;;;32.65;19.20;;;6.00;99.90;;;;;;5054123;28;20029;-76
2021/03/11 05:25:45;;;;;;;32.85;18.70;;;6.00;99.90;;;;;;5053803;28;20048;-75
2021/03/11 05:28:11;;;;;;;28.27;17.02;;;5.90;99.90;;;;;;5054298;28;20041;-75
2021/03/11 05:30:37;;;;;;;30.67;18.52;;;5.90;99.90;;;;;;5054268;28;20092;-75
2021/03/11 05:33:03;;;;;;;30.35;19.15;;;5.90;99.90;;;;;;5054291;28;20025;-76
2021/03/11 05:35:28;;;;;;;34.78;20.00;;;5.90;99.90;;;;;;5037964;28;20036;-75
2021/03/11 05:37:54;;;;;;;30.48;19.33;;;5.90;99.90;;;;;;5054141;28;20119;-76
2021/03/11 05:40:22;;;;;;;31.48;19.45;;;5.90;99.90;;;;;;5054061;28;20054;-76
2021/03/11 05:42:49;;;;;;;36.13;21.00;;;6.00;99.90;;;;;;5053452;28;20032;-75
2021/03/11 05:45:15;;;;;;;35.05;21.10;;;6.00;99.90;;;;;;5053333;28;20028;-75
2021/03/11 05:47:43;;;;;;;34.63;20.38;;;5.90;99.90;;;;;;5054027;28;20025;-75
2021/03/11 05:50:09;;;;;;;42.13;21.48;;;6.00;99.90;;;;;;5053859;28;20056;-76
2021/03/11 05:52:35;;;;;;;32.83;19.98;;;6.00;99.90;;;;;;5053596;28;20041;-75
2021/03/11 05:55:06;;;;;;;38.85;22.50;;;6.00;99.90;;;;;;5053171;28;20025;-75
2021/03/11 05:57:31;;;;;;;39.03;21.08;;;6.00;99.90;;;;;;5053595;28;20029;-76
2021/03/11 05:59:57;;;;;;;41.33;22.13;;;6.00;99.90;;;;;;5053692;28;20457;-76
2021/03/11 06:02:23;;;;;;;36.90;20.13;;;6.00;99.90;;;;;;5035321;28;20060;-76
2021/03/11 06:04:54;;;;;;;41.90;23.20;;;6.00;99.90;;;;;;5052996;28;20021;-76
2021/03/11 06:07:23;;;;;;;42.42;21.35;;;6.00;99.90;;;;;;5053747;28;20075;-76
2021/03/11 06:09:56;;;;;;;35.85;21.38;;;6.00;99.90;;;;;;5053283;28;20044;-76
2021/03/11 06:12:24;;;;;;;33.25;21.30;;;6.00;99.90;;;;;;5053430;28;20664;-75
2021/03/11 06:14:57;;;;;;;39.15;22.48;;;6.10;99.90;;;;;;5033441;28;20116;-76
2021/03/11 06:17:27;;;;;;;44.45;21.88;;;6.10;99.90;;;;;;5033482;28;20104;-76
2021/03/11 06:19:54;;;;;;;38.40;21.35;;;6.10;99.90;;;;;;5033383;28;20053;-76
2021/03/11 06:22:19;;;;;;;35.88;22.13;;;6.10;99.90;;;;;;5033261;28;20057;-76
2021/03/11 06:24:45;;;;;;;39.28;23.48;;;6.10;99.90;;;;;;5049782;28;20060;-76
2021/03/11 06:27:11;;;;;;;41.25;22.92;;;6.10;99.90;;;;;;5053219;28;20025;-76
2021/03/11 06:29:41;;;;;;;35.65;22.33;;;6.20;99.90;;;;;;5035046;28;20089;-76
2021/03/11 06:32:11;;;;;;;36.22;21.05;;;6.20;99.90;;;;;;5053116;28;20108;-76
2021/03/11 06:34:39;;;;;;;34.85;22.30;;;6.20;99.90;;;;;;5039819;28;20029;-76
2021/03/11 06:37:06;;;;;;;32.83;21.15;;;6.20;99.90;;;;;;5050084;28;20064;-76
2021/03/11 06:39:33;;;;;;;32.53;20.13;;;6.30;99.90;;;;;;5052943;28;20078;-76
2021/03/11 06:41:59;;;;;;;31.02;20.00;;;6.40;99.90;;;;;;5052814;28;20547;-76
2021/03/11 06:44:44;;;;;;;29.33;17.70;;;6.40;99.90;;;;;;5051929;28;20039;-75
2021/03/11 06:47:15;;;;;;;32.92;19.90;;;6.40;99.90;;;;;;5052867;28;20028;-75
2021/03/11 06:50:00;;;;;;;30.17;19.40;;;6.40;99.90;;;;;;5052612;28;20434;-76
2021/03/11 06:52:27;;;;;;;32.08;18.13;;;6.50;99.90;;;;;;5052837;28;20067;-76
2021/03/11 06:55:02;;;;;;;32.05;20.02;;;6.50;99.90;;;;;;5051809;28;20067;-76
2021/03/11 06:57:32;;;;;;;32.45;19.38;;;6.40;99.90;;;;;;5052309;28;20094;-76
2021/03/11 06:59:59;;;;;;;34.72;19.17;;;6.50;99.90;;;;;;5032547;28;20036;-76
2021/03/11 07:02:27;;;;;;;33.28;19.35;;;6.50;99.90;;;;;;5032587;28;20056;-77
2021/03/11 07:04:54;;;;;;;35.08;18.98;;;6.60;99.90;;;;;;5047161;28;20017;-76
2021/03/11 07:07:21;;;;;;;25.83;17.60;;;6.70;99.90;;;;;;5052502;28;20095;-76
2021/03/11 07:09:48;;;;;;;33.75;18.52;;;6.70;99.90;;;;;;5052366;28;20044;-76
2021/03/11 07:12:14;;;;;;;30.83;18.90;;;6.80;99.90;;;;;;5052348;28;20048;-76
2021/03/11 07:14:40;;;;;;;30.25;17.95;;;6.80;99.90;;;;;;5051425;28;20029;-76
2021/03/11 07:17:25;;;;;;;34.92;19.60;;;6.80;99.90;;;;;;5052269;28;20025;-75
2021/03/11 07:20:17;;;;;;;33.78;18.40;;;6.80;99.90;;;;;;5033878;28;20036;-76
2021/03/11 07:23:02;;;;;;;29.58;18.58;;;6.90;99.90;;;;;;5051746;28;20029;-76
2021/03/11 07:25:33;;;;;;;39.25;20.58;;;6.80;99.90;;;;;;5031638;28;20021;-76
2021/03/11 07:28:02;;;;;;;28.35;18.92;;;6.80;99.90;;;;;;5037578;28;20032;-76
2021/03/11 07:30:28;;;;;;;29.70;19.55;;;6.90;99.90;;;;;;5051983;28;20533;-75
2021/03/11 07:32:59;;;;;;;28.73;18.48;;;6.90;99.90;;;;;;5052053;28;20045;-76
2021/03/11 07:35:26;;;;;;;34.63;20.23;;;7.00;99.90;;;;;;5033041;28;20039;-76
2021/03/11 07:37:55;;;;;;;30.45;19.65;;;7.00;99.90;;;;;;5051905;28;20025;-76
2021/03/11 07:40:21;;;;;;;33.30;21.02;;;7.10;99.90;;;;;;5051838;28;20048;-76
2021/03/11 07:42:46;;;;;;;35.58;20.40;;;7.00;99.90;;;;;;5051425;28;20478;-76
2021/03/11 07:45:13;;;;;;;26.48;18.02;;;7.10;99.90;;;;;;5051178;28;20036;-76
2021/03/11 07:47:39;;;;;;;27.45;19.50;;;7.10;99.90;;;;;;5051747;28;20014;-76
2021/03/11 07:50:08;;;;;;;33.83;18.50;;;7.10;99.90;;;;;;5051697;28;20060;-75
2021/03/11 07:52:34;;;;;;;28.55;16.95;;;7.20;99.90;;;;;;5051726;28;20032;-76
2021/03/11 07:55:03;;;;;;;29.27;17.15;;;7.20;99.90;;;;;;5050769;28;20090;-76
2021/03/11 07:57:32;;;;;;;27.48;16.52;;;7.30;99.90;;;;;;5051433;28;20107;-76
2021/03/11 07:59:58;;;;;;;31.15;17.00;;;7.40;99.90;;;;;;5051490;28;20032;-76
2021/03/11 08:02:25;;;;;;;27.45;16.27;;;7.40;99.90;;;;;;5049125;28;20032;-75
2021/03/11 08:04:51;;;;;;;29.92;15.25;;;7.60;99.90;;;;;;5032437;28;20032;-76
2021/03/11 08:07:24;;;;;;;25.23;15.82;;;7.60;99.90;;;;;;5051289;28;20461;-75
2021/03/11 08:09:55;;;;;;;30.00;16.00;;;7.70;99.90;;;;;;5051406;28;20079;-76
2021/03/11 08:12:34;;;;;;;21.45;14.48;;;7.80;99.90;;;;;;5051173;28;20374;-75
2021/03/11 08:15:03;;;;;;;27.10;12.63;;;7.90;99.90;;;;;;5012933;28;20040;-75
2021/03/11 08:17:41;;;;;;;20.85;13.27;;;7.90;99.90;;;;;;5031351;28;20079;-76
2021/03/11 08:20:19;;;;;;;27.02;13.63;;;8.00;99.90;;;;;;5031533;28;20018;-76
2021/03/11 08:22:51;;;;;;;31.40;12.60;;;8.10;99.90;;;;;;5031611;28;20430;-76
2021/03/11 08:25:32;;;;;;;20.45;12.10;;;8.10;99.90;;;;;;5050565;28;20025;-76
2021/03/11 08:27:58;;;;;;;25.40;13.00;;;8.10;99.90;;;;;;5050968;28;20477;-77
2021/03/11 08:30:42;;;;;;;25.00;12.65;;;8.20;99.90;;;;;;5051079;28;20036;-76
2021/03/11 08:33:12;;;;;;;25.90;12.68;;;8.20;99.90;;;;;;5054568;28;20029;-76
2021/03/11 08:35:42;;;;;;;26.98;12.05;;;8.20;99.90;;;;;;5054365;28;20040;-75
2021/03/11 08:38:34;;;;;;;27.95;12.80;;;8.20;99.90;;;;;;5055203;28;20036;-76
2021/03/11 08:41:05;;;;;;;28.65;11.52;;;8.10;99.90;;;;;;5055039;28;20028;-77
2021/03/11 08:46:08;;;;;;;26.20;9.50;;;8.30;99.90;;;;;;5054437;28;20029;-77
2021/03/11 08:48:47;;;;;;;30.70;10.05;;;8.20;99.90;;;;;;5055723;28;20021;-77
2021/03/11 08:51:18;;;;;;;24.15;8.15;;;8.20;99.90;;;;;;5046913;28;20028;-78
2021/03/11 08:53:49;;;;;;;19.73;8.32;;;8.20;99.90;;;;;;5054655;28;20445;-77
2021/03/11 08:56:18;;;;;;;22.40;7.75;;;8.20;99.90;;;;;;5055121;28;20044;-78
2021/03/11 08:58:50;;;;;;;27.42;6.57;;;8.10;99.90;;;;;;5054911;28;20104;-77
2021/03/11 09:01:33;;;;;;;27.27;7.30;;;8.10;99.90;;;;;;5054769;28;20495;-77
2021/03/11 09:03:59;;;;;;;33.07;6.60;;;8.10;99.90;;;;;;5053613;28;20401;-77
2021/03/11 09:06:54;;;;;;;23.73;5.28;;;8.10;99.90;;;;;;5054588;28;21039;-77
2021/03/11 09:09:38;;;;;;;29.75;6.18;;;8.20;99.90;;;;;;5054516;28;20021;-77
2021/03/11 09:12:35;;;;;;;26.67;5.38;;;8.20;99.90;;;;;;5054369;28;20025;-78
2021/03/11 09:15:03;;;;;;;30.80;6.13;;;8.20;99.90;;;;;;5032841;28;20479;-78
2021/03/11 09:17:31;;;;;;;29.38;6.53;;;8.20;99.90;;;;;;5054399;28;20021;-78
2021/03/11 09:20:12;;;;;;;34.17;6.72;;;8.30;99.90;;;;;;5053847;28;20021;-77
2021/03/11 09:22:49;;;;;;;27.55;6.88;;;8.30;99.90;;;;;;5049226;28;20109;-77
2021/03/11 09:25:22;;;;;;;21.23;6.85;;;8.30;99.90;;;;;;5052043;28;20119;-76
2021/03/11 09:28:18;;;;;;;26.33;9.52;;;8.20;99.90;;;;;;5036198;28;20025;-77
2021/03/11 09:30:44;;;;;;;18.30;7.47;;;8.20;99.90;;;;;;5053924;28;20044;-76
2021/03/11 09:33:18;;;;;;;30.27;8.82;;;8.30;99.90;;;;;;5053860;28;20031;-76
2021/03/11 09:35:44;;;;;;;29.60;9.15;;;8.40;99.90;;;;;;5062113;28;20048;-76
2021/03/11 09:38:12;;;;;;;29.35;9.18;;;8.40;99.90;;;;;;5056331;28;20033;-76
2021/03/11 09:40:51;;;;;;;26.77;10.68;;;8.50;99.90;;;;;;5053813;28;20481;-76
2021/03/11 09:43:25;;;;;;;24.80;9.88;;;8.50;99.90;;;;;;5053415;28;20029;-77
2021/03/11 09:46:00;;;;;;;27.10;11.05;;;8.60;99.90;;;;;;5052914;28;20025;-76
2021/03/11 09:48:30;;;;;;;20.75;10.02;;;8.60;99.90;;;;;;5053505;28;20392;-76
2021/03/11 09:51:11;;;;;;;32.55;12.50;;;8.70;99.90;;;;;;5041859;28;20091;-78
2021/03/11 09:53:47;;;;;;;26.55;11.93;;;8.70;99.90;;;;;;5032198;28;20456;-78
2021/03/11 09:56:23;;;;;;;34.30;12.02;;;8.60;99.90;;;;;;5042889;28;20052;-77
2021/03/11 09:58:50;;;;;;;31.42;12.45;;;8.50;99.90;;;;;;5052811;28;20040;-78
2021/03/11 10:01:35;;;;;;;29.77;12.38;;;8.40;99.90;;;;;;5052578;28;20083;-77
2021/03/11 10:04:11;;;;;;;33.80;13.85;;;8.40;99.90;;;;;;5032097;28;20021;-78
2021/03/11 10:06:46;;;;;;;40.20;13.05;;;8.40;99.90;;;;;;5014806;28;20030;-78
2021/03/11 10:09:12;;;;;;;35.28;13.82;;;8.50;99.90;;;;;;5032644;28;20026;-80
2021/03/11 10:11:43;;;;;;;34.15;11.88;;;8.70;99.90;;;;;;5032043;28;20022;-76
2021/03/11 10:14:17;;;;;;;27.75;11.65;;;8.80;99.90;;;;;;5031476;28;20057;-78
2021/03/11 10:16:48;;;;;;;23.85;11.10;;;8.70;99.90;;;;;;5050390;28;20040;-75
2021/03/11 10:19:21;;;;;;;37.95;12.60;;;8.70;99.90;;;;;;5051629;28;20397;-76
2021/03/11 10:21:50;;;;;;;30.98;11.50;;;8.70;99.90;;;;;;5064148;28;20159;-77
2021/03/11 10:24:33;;;;;;;34.53;11.48;;;8.90;99.90;;;;;;5072506;28;20572;-75
2021/03/11 10:27:01;;;;;;;40.88;11.25;;;9.00;99.90;;;;;;5054854;28;20044;-75
2021/03/11 10:29:32;;;;;;;36.45;11.43;;;9.00;99.90;;;;;;5053277;28;20075;-76
2021/03/11 10:32:03;;;;;;;41.72;10.85;;;9.00;99.90;;;;;;5053059;28;20044;-75
2021/03/11 10:34:29;;;;;;;43.95;10.98;;;8.90;99.90;;;;;;5051852;28;20099;-76
2021/03/11 10:37:01;;;;;;;49.88;9.65;;;9.00;99.90;;;;;;5052474;28;20025;-75
2021/03/11 10:39:27;;;;;;;40.33;10.85;;;8.90;99.90;;;;;;5052843;28;20080;-76
2021/03/11 10:41:57;;;;;;;58.42;12.00;;;8.90;99.90;;;;;;5052849;28;20023;-76
2021/03/11 10:44:23;;;;;;;49.97;11.35;;;8.90;99.90;;;;;;5052328;28;20025;-75
2021/03/11 10:46:49;;;;;;;37.80;10.80;;;8.90;99.90;;;;;;5052439;28;20112;-76
2021/03/11 10:49:15;;;;;;;49.92;11.55;;;9.00;99.90;;;;;;5034531;28;20037;-76
2021/03/11 10:51:42;;;;;;;41.72;12.05;;;8.90;99.90;;;;;;5052859;28;20036;-76
2021/03/11 10:54:26;;;;;;;54.60;11.10;;;9.00;99.90;;;;;;5051852;28;20032;-76
2021/03/11 10:57:13;;;;;;;50.95;10.90;;;8.90;99.90;;;;;;5033870;28;20079;-76
2021/03/11 10:59:52;;;;;;;51.00;11.20;;;8.80;99.90;;;;;;5052549;28;20585;-76
2021/03/11 11:02:20;;;;;;;57.95;11.98;;;8.70;99.90;;;;;;5052388;28;20052;-76
2021/03/11 11:04:46;;;;;;;77.90;12.88;;;8.70;99.90;;;;;;5033791;28;20120;-76
2021/03/11 11:07:12;;;;;;;64.60;11.48;;;8.60;99.90;;;;;;5031417;28;20115;-76
2021/03/11 11:09:39;;;;;;;78.95;11.88;;;8.70;99.90;;;;;;5051306;28;20044;-76
2021/03/11 11:12:08;;;;;;;72.45;10.57;;;8.60;99.90;;;;;;5051594;28;20100;-75
2021/03/11 11:14:34;;;;;;;71.65;12.13;;;8.70;99.90;;;;;;5051337;28;20071;-76
2021/03/11 11:17:00;;;;;;;76.18;10.73;;;8.90;99.90;;;;;;5051510;28;20024;-76
2021/03/11 11:19:25;;;;;;;82.85;13.48;;;8.90;99.90;;;;;;5033646;28;20031;-75
2021/03/11 11:21:51;;;;;;;77.40;10.82;;;8.70;99.90;;;;;;5051995;28;20055;-76
2021/03/11 11:24:16;;;;;;;70.25;13.30;;;8.60;99.90;;;;;;5051384;28;20466;-76
2021/03/11 11:26:42;;;;;;;81.35;13.38;;;8.40;99.90;;;;;;5051550;28;20037;-77
2021/03/11 11:29:08;;;;;;;74.47;11.38;;;8.40;99.90;;;;;;5051904;28;20059;-76
2021/03/11 11:31:34;;;;;;;89.68;11.63;;;8.30;99.90;;;;;;5034109;28;20048;-75
2021/03/11 11:33:59;;;;;;;65.90;11.38;;;8.30;99.90;;;;;;5033642;28;20489;-76
2021/03/11 11:36:25;;;;;;;91.22;14.65;;;8.20;99.90;;;;;;5050710;28;20538;-76
2021/03/11 11:38:51;;;;;;;104.80;13.70;;;8.30;99.90;;;;;;5049255;28;20525;-76
2021/03/11 11:41:18;;;;;;;95.40;14.63;;;8.20;99.90;;;;;;5051302;28;20508;-76
2021/03/11 11:43:44;;;;;;;97.50;13.43;;;8.20;99.90;;;;;;5033166;28;20040;-76
2021/03/11 11:46:10;;;;;;;99.22;14.43;;;8.20;99.90;;;;;;5051338;28;20028;-76
2021/03/11 11:48:35;;;;;;;92.78;14.18;;;8.20;99.90;;;;;;5051050;28;20029;-75
2021/03/11 11:51:01;;;;;;;111.38;13.38;;;8.30;99.90;;;;;;5051192;28;20032;-77
2021/03/11 11:53:26;;;;;;;87.75;12.93;;;8.30;99.90;;;;;;5033646;28;20025;-76
2021/03/11 11:55:52;;;;;;;80.20;12.98;;;8.20;99.90;;;;;;5053255;28;20032;-75
2021/03/11 11:58:18;;;;;;;76.15;12.18;;;8.20;99.90;;;;;;5071571;28;20055;-75
2021/03/11 12:00:44;;;;;;;109.15;16.23;;;8.10;99.90;;;;;;5053499;28;20024;-75
2021/03/11 12:03:09;;;;;;;117.93;14.82;;;7.90;99.90;;;;;;5071320;28;20146;-75
2021/03/11 12:05:35;;;;;;;110.18;13.77;;;7.80;99.90;;;;;;5058777;28;20025;-76
2021/03/11 12:08:01;;;;;;;109.88;13.93;;;7.70;99.90;;;;;;5051213;28;20066;-76
2021/03/11 12:10:26;;;;;;;111.03;15.00;;;7.70;99.90;;;;;;5051236;28;20481;-76
2021/03/11 12:12:52;;;;;;;131.07;15.75;;;7.60;99.90;;;;;;5051509;28;20493;-76
2021/03/11 12:15:17;;;;;;;93.90;13.52;;;7.70;99.90;;;;;;5050295;28;20071;-75
2021/03/11 12:17:43;;;;;;;97.88;13.20;;;7.70;99.90;;;;;;5051324;28;20037;-76
2021/03/11 12:20:09;;;;;;;110.18;13.05;;;7.70;99.90;;;;;;5033034;28;20389;-76
2021/03/11 12:22:35;;;;;;;86.63;11.90;;;7.70;99.90;;;;;;5033446;28;20528;-75
2021/03/11 12:25:00;;;;;;;78.90;11.13;;;7.60;99.90;;;;;;5050223;28;20029;-77
2021/03/11 12:27:26;;;;;;;85.82;12.23;;;7.70;99.90;;;;;;5051309;28;20400;-78
2021/03/11 12:29:53;;;;;;;82.78;10.25;;;7.60;99.90;;;;;;5051155;28;20050;-77
2021/03/11 12:32:19;;;;;;;100.15;11.80;;;7.60;99.90;;;;;;5051413;28;20059;-77
2021/03/11 12:34:45;;;;;;;91.22;12.40;;;7.60;99.90;;;;;;5050337;28;20075;-76
2021/03/11 12:37:12;;;;;;;73.70;9.35;;;7.70;99.90;;;;;;5050286;28;20025;-76
2021/03/11 12:39:37;;;;;;;79.70;11.32;;;7.70;99.90;;;;;;5050791;28;20028;-75
2021/03/11 12:42:03;;;;;;;95.10;11.20;;;7.70;99.90;;;;;;5051105;28;20091;-76
2021/03/11 12:44:28;;;;;;;74.95;11.52;;;7.70;99.90;;;;;;5050543;28;20031;-76
2021/03/11 12:46:54;;;;;;;90.57;9.25;;;7.60;99.90;;;;;;5050930;28;20108;-75
2021/03/11 12:49:20;;;;;;;81.95;11.27;;;7.60;99.90;;;;;;5050473;28;20421;-76